sensor_id;sensor_type;location;lat;lon;timestamp;P1;durP1;ratioP1;P2;durP2;ratioP2
17253;SDS011;32542;52.832;13.816;2022-12-07T00:02:05;2.80;;;1.40;;
17253;SDS011;32542;52.832;13.816;2022-12-07T00:05:08;2.05;;;1.30;;
17253;SDS011;32542;52.832;13.816;2022-12-07T00:08:13;1.70;;;1.20;;
17253;SDS011;32542;52.832;13.816;2022-12-07T00:11:16;2.50;;;1.10;;
17253;SDS011;32542;52.832;13.816;2022-12-07T00:14:21;2.42;;;1.45;;
17253;SDS011;32542;52.832;13.816;2022-12-07T00:17:24;1.42;;;1.20;;
17253;SDS011;32542;52.832;13.816;2022-12-07T00:20:27;1.50;;;1.25;;
17253;SDS011;32542;52.832;13.816;2022-12-07T00:23:31;3.03;;;1.30;;
17253;SDS011;32542;52.832;13.816;2022-12-07T00:26:35;2.67;;;1.30;;
17253;SDS011;32542;52.832;13.816;2022-12-07T00:29:40;1.60;;;1.40;;
17253;SDS011;32542;52.832;13.816;2022-12-07T00:32:43;1.45;;;1.30;;
17253;SDS011;32542;52.832;13.816;2022-12-07T00:35:46;2.80;;;1.83;;
17253;SDS011;32542;52.832;13.816;2022-12-07T00:38:50;2.72;;;1.42;;
17253;SDS011;32542;52.832;13.816;2022-12-07T00:41:54;2.05;;;1.20;;
17253;SDS011;32542;52.832;13.816;2022-12-07T00:44:57;3.78;;;1.50;;
17253;SDS011;32542;52.832;13.816;2022-12-07T00:48:00;2.10;;;1.27;;
17253;SDS011;32542;52.832;13.816;2022-12-07T00:51:03;1.58;;;1.17;;
17253;SDS011;32542;52.832;13.816;2022-12-07T00:54:08;2.85;;;1.10;;
17253;SDS011;32542;52.832;13.816;2022-12-07T00:57:11;1.77;;;1.20;;
17253;SDS011;32542;52.832;13.816;2022-12-07T01:00:14;1.33;;;1.20;;
17253;SDS011;32542;52.832;13.816;2022-12-07T01:03:17;1.95;;;1.30;;
17253;SDS011;32542;52.832;13.816;2022-12-07T01:06:21;1.67;;;1.20;;
17253;SDS011;32542;52.832;13.816;2022-12-07T01:09:27;1.45;;;1.20;;
17253;SDS011;32542;52.832;13.816;2022-12-07T01:12:30;1.58;;;1.15;;
17253;SDS011;32542;52.832;13.816;2022-12-07T01:15:33;1.63;;;1.10;;
17253;SDS011;32542;52.832;13.816;2022-12-07T01:18:36;3.85;;;1.40;;
17253;SDS011;32542;52.832;13.816;2022-12-07T01:21:39;2.30;;;1.33;;
17253;SDS011;32542;52.832;13.816;2022-12-07T01:24:43;2.25;;;1.23;;
17253;SDS011;32542;52.832;13.816;2022-12-07T01:27:48;2.67;;;1.38;;
17253;SDS011;32542;52.832;13.816;2022-12-07T01:30:54;3.10;;;1.30;;
17253;SDS011;32542;52.832;13.816;2022-12-07T01:33:59;3.65;;;1.20;;
17253;SDS011;32542;52.832;13.816;2022-12-07T01:37:03;2.08;;;1.17;;
17253;SDS011;32542;52.832;13.816;2022-12-07T01:40:09;2.00;;;1.25;;
17253;SDS011;32542;52.832;13.816;2022-12-07T01:43:14;1.80;;;1.45;;
17253;SDS011;32542;52.832;13.816;2022-12-07T01:46:20;1.55;;;1.08;;
17253;SDS011;32542;52.832;13.816;2022-12-07T01:49:28;2.45;;;1.30;;
17253;SDS011;32542;52.832;13.816;2022-12-07T01:52:34;2.55;;;1.20;;
17253;SDS011;32542;52.832;13.816;2022-12-07T01:55:42;1.80;;;1.30;;
17253;SDS011;32542;52.832;13.816;2022-12-07T01:58:48;2.92;;;1.10;;
17253;SDS011;32542;52.832;13.816;2022-12-07T02:01:51;3.92;;;1.45;;
17253;SDS011;32542;52.832;13.816;2022-12-07T02:04:55;1.73;;;1.10;;
17253;SDS011;32542;52.832;13.816;2022-12-07T02:08:00;2.30;;;1.38;;
17253;SDS011;32542;52.832;13.816;2022-12-07T02:11:06;3.63;;;1.30;;
17253;SDS011;32542;52.832;13.816;2022-12-07T02:14:10;3.13;;;1.40;;
17253;SDS011;32542;52.832;13.816;2022-12-07T02:17:14;2.58;;;1.35;;
17253;SDS011;32542;52.832;13.816;2022-12-07T02:20:28;3.10;;;1.40;;
17253;SDS011;32542;52.832;13.816;2022-12-07T02:23:40;3.22;;;1.42;;
17253;SDS011;32542;52.832;13.816;2022-12-07T02:27:19;2.70;;;1.30;;
17253;SDS011;32542;52.832;13.816;2022-12-07T02:30:39;3.78;;;1.45;;
17253;SDS011;32542;52.832;13.816;2022-12-07T02:33:49;2.67;;;1.08;;
17253;SDS011;32542;52.832;13.816;2022-12-07T02:36:59;1.25;;;1.00;;
17253;SDS011;32542;52.832;13.816;2022-12-07T02:40:07;2.22;;;1.30;;
17253;SDS011;32542;52.832;13.816;2022-12-07T02:43:14;1.42;;;0.95;;
17253;SDS011;32542;52.832;13.816;2022-12-07T02:46:22;3.40;;;1.30;;
17253;SDS011;32542;52.832;13.816;2022-12-07T02:49:28;1.92;;;0.93;;
17253;SDS011;32542;52.832;13.816;2022-12-07T02:52:33;1.90;;;1.20;;
17253;SDS011;32542;52.832;13.816;2022-12-07T02:55:37;1.95;;;1.20;;
17253;SDS011;32542;52.832;13.816;2022-12-07T02:58:46;1.33;;;1.10;;
17253;SDS011;32542;52.832;13.816;2022-12-07T03:02:00;2.50;;;1.08;;
17253;SDS011;32542;52.832;13.816;2022-12-07T03:05:19;1.35;;;1.17;;
17253;SDS011;32542;52.832;13.816;2022-12-07T03:08:34;1.13;;;1.00;;
17253;SDS011;32542;52.832;13.816;2022-12-07T03:11:46;1.30;;;1.08;;
17253;SDS011;32542;52.832;13.816;2022-12-07T03:14:54;1.52;;;1.15;;
17253;SDS011;32542;52.832;13.816;2022-12-07T03:18:05;2.30;;;1.20;;
17253;SDS011;32542;52.832;13.816;2022-12-07T03:21:11;1.88;;;1.50;;
17253;SDS011;32542;52.832;13.816;2022-12-07T03:24:24;1.90;;;1.00;;
17253;SDS011;32542;52.832;13.816;2022-12-07T03:27:31;1.35;;;1.23;;
17253;SDS011;32542;52.832;13.816;2022-12-07T03:30:37;1.83;;;1.15;;
17253;SDS011;32542;52.832;13.816;2022-12-07T03:33:49;2.22;;;1.10;;
17253;SDS011;32542;52.832;13.816;2022-12-07T03:37:00;1.10;;;1.00;;
17253;SDS011;32542;52.832;13.816;2022-12-07T03:40:10;1.50;;;1.20;;
17253;SDS011;32542;52.832;13.816;2022-12-07T03:43:18;3.15;;;1.20;;
17253;SDS011;32542;52.832;13.816;2022-12-07T03:46:24;1.83;;;1.00;;
17253;SDS011;32542;52.832;13.816;2022-12-07T03:49:39;1.27;;;1.10;;
17253;SDS011;32542;52.832;13.816;2022-12-07T03:52:47;1.25;;;1.00;;
17253;SDS011;32542;52.832;13.816;2022-12-07T03:55:55;1.30;;;1.20;;
17253;SDS011;32542;52.832;13.816;2022-12-07T03:58:59;1.20;;;1.10;;
17253;SDS011;32542;52.832;13.816;2022-12-07T04:02:03;1.63;;;1.08;;
17253;SDS011;32542;52.832;13.816;2022-12-07T04:05:10;1.38;;;1.05;;
17253;SDS011;32542;52.832;13.816;2022-12-07T04:08:13;1.58;;;1.23;;
17253;SDS011;32542;52.832;13.816;2022-12-07T04:11:17;1.52;;;1.08;;
17253;SDS011;32542;52.832;13.816;2022-12-07T04:14:20;1.42;;;1.20;;
17253;SDS011;32542;52.832;13.816;2022-12-07T04:17:23;1.25;;;0.95;;
17253;SDS011;32542;52.832;13.816;2022-12-07T04:20:27;2.50;;;1.20;;
17253;SDS011;32542;52.832;13.816;2022-12-07T04:23:30;1.17;;;1.00;;
17253;SDS011;32542;52.832;13.816;2022-12-07T04:26:33;1.98;;;1.13;;
17253;SDS011;32542;52.832;13.816;2022-12-07T04:29:36;1.90;;;1.00;;
17253;SDS011;32542;52.832;13.816;2022-12-07T04:32:39;1.40;;;1.23;;
17253;SDS011;32542;52.832;13.816;2022-12-07T04:35:44;1.10;;;1.00;;
17253;SDS011;32542;52.832;13.816;2022-12-07T04:38:47;1.90;;;1.40;;
17253;SDS011;32542;52.832;13.816;2022-12-07T04:41:50;1.02;;;0.95;;
17253;SDS011;32542;52.832;13.816;2022-12-07T04:44:53;1.27;;;1.00;;
17253;SDS011;32542;52.832;13.816;2022-12-07T04:47:56;1.50;;;1.20;;
17253;SDS011;32542;52.832;13.816;2022-12-07T04:51:01;1.10;;;1.00;;
17253;SDS011;32542;52.832;13.816;2022-12-07T04:54:05;1.10;;;1.00;;
17253;SDS011;32542;52.832;13.816;2022-12-07T04:57:08;1.05;;;0.93;;
17253;SDS011;32542;52.832;13.816;2022-12-07T05:00:11;1.20;;;1.10;;
17253;SDS011;32542;52.832;13.816;2022-12-07T05:03:14;1.48;;;1.17;;
17253;SDS011;32542;52.832;13.816;2022-12-07T05:06:19;1.55;;;1.00;;
17253;SDS011;32542;52.832;13.816;2022-12-07T05:09:22;0.90;;;0.80;;
17253;SDS011;32542;52.832;13.816;2022-12-07T05:12:25;0.98;;;0.80;;
17253;SDS011;32542;52.832;13.816;2022-12-07T05:15:28;1.10;;;0.98;;
17253;SDS011;32542;52.832;13.816;2022-12-07T05:18:31;1.20;;;1.10;;
17253;SDS011;32542;52.832;13.816;2022-12-07T05:21:35;1.08;;;0.98;;
17253;SDS011;32542;52.832;13.816;2022-12-07T05:24:38;1.45;;;1.00;;
17253;SDS011;32542;52.832;13.816;2022-12-07T05:27:42;1.00;;;0.90;;
17253;SDS011;32542;52.832;13.816;2022-12-07T05:30:45;1.42;;;1.00;;
17253;SDS011;32542;52.832;13.816;2022-12-07T05:33:48;0.80;;;0.77;;
17253;SDS011;32542;52.832;13.816;2022-12-07T05:36:52;1.08;;;0.98;;
17253;SDS011;32542;52.832;13.816;2022-12-07T05:39:55;1.90;;;1.20;;
17253;SDS011;32542;52.832;13.816;2022-12-07T05:42:58;1.10;;;1.00;;
17253;SDS011;32542;52.832;13.816;2022-12-07T05:46:05;1.20;;;1.10;;
17253;SDS011;32542;52.832;13.816;2022-12-07T05:49:08;0.80;;;0.80;;
17253;SDS011;32542;52.832;13.816;2022-12-07T05:52:13;1.23;;;1.10;;
17253;SDS011;32542;52.832;13.816;2022-12-07T05:55:15;2.30;;;1.00;;
17253;SDS011;32542;52.832;13.816;2022-12-07T05:58:18;1.10;;;1.00;;
17253;SDS011;32542;52.832;13.816;2022-12-07T06:01:39;1.25;;;1.00;;
17253;SDS011;32542;52.832;13.816;2022-12-07T06:04:43;1.90;;;1.02;;
17253;SDS011;32542;52.832;13.816;2022-12-07T06:07:49;1.10;;;1.00;;
17253;SDS011;32542;52.832;13.816;2022-12-07T06:10:52;1.20;;;1.10;;
17253;SDS011;32542;52.832;13.816;2022-12-07T06:14:15;1.38;;;1.23;;
17253;SDS011;32542;52.832;13.816;2022-12-07T06:17:17;1.60;;;1.20;;
17253;SDS011;32542;52.832;13.816;2022-12-07T06:20:20;1.85;;;0.98;;
17253;SDS011;32542;52.832;13.816;2022-12-07T06:23:24;1.48;;;1.20;;
17253;SDS011;32542;52.832;13.816;2022-12-07T06:26:27;1.30;;;1.10;;
17253;SDS011;32542;52.832;13.816;2022-12-07T06:29:30;1.65;;;1.05;;
17253;SDS011;32542;52.832;13.816;2022-12-07T06:32:33;1.45;;;1.23;;
17253;SDS011;32542;52.832;13.816;2022-12-07T06:35:38;2.42;;;1.00;;
17253;SDS011;32542;52.832;13.816;2022-12-07T06:38:43;1.65;;;1.00;;
17253;SDS011;32542;52.832;13.816;2022-12-07T06:41:46;1.20;;;1.10;;
17253;SDS011;32542;52.832;13.816;2022-12-07T06:44:49;1.23;;;1.13;;
17253;SDS011;32542;52.832;13.816;2022-12-07T06:47:52;1.52;;;1.10;;
17253;SDS011;32542;52.832;13.816;2022-12-07T06:50:55;1.20;;;1.10;;
17253;SDS011;32542;52.832;13.816;2022-12-07T06:53:59;2.08;;;1.30;;
17253;SDS011;32542;52.832;13.816;2022-12-07T06:57:02;2.67;;;1.27;;
17253;SDS011;32542;52.832;13.816;2022-12-07T07:00:06;3.47;;;1.33;;
17253;SDS011;32542;52.832;13.816;2022-12-07T07:03:09;3.42;;;1.67;;
17253;SDS011;32542;52.832;13.816;2022-12-07T07:06:13;3.53;;;1.67;;
17253;SDS011;32542;52.832;13.816;2022-12-07T07:09:18;9.00;;;1.90;;
17253;SDS011;32542;52.832;13.816;2022-12-07T07:12:21;5.32;;;1.70;;
17253;SDS011;32542;52.832;13.816;2022-12-07T07:15:24;11.75;;;1.67;;
17253;SDS011;32542;52.832;13.816;2022-12-07T07:18:27;6.65;;;1.67;;
17253;SDS011;32542;52.832;13.816;2022-12-07T07:21:31;2.88;;;1.42;;
17253;SDS011;32542;52.832;13.816;2022-12-07T07:24:35;8.43;;;1.48;;
17253;SDS011;32542;52.832;13.816;2022-12-07T07:27:38;3.20;;;1.30;;
17253;SDS011;32542;52.832;13.816;2022-12-07T07:30:41;1.88;;;1.40;;
17253;SDS011;32542;52.832;13.816;2022-12-07T07:33:45;4.53;;;1.55;;
17253;SDS011;32542;52.832;13.816;2022-12-07T07:36:48;3.30;;;1.83;;
17253;SDS011;32542;52.832;13.816;2022-12-07T07:39:53;6.13;;;1.75;;
17253;SDS011;32542;52.832;13.816;2022-12-07T07:42:56;4.97;;;1.45;;
17253;SDS011;32542;52.832;13.816;2022-12-07T07:45:59;7.00;;;1.80;;
17253;SDS011;32542;52.832;13.816;2022-12-07T07:49:02;5.63;;;1.80;;
17253;SDS011;32542;52.832;13.816;2022-12-07T07:52:05;5.15;;;2.17;;
17253;SDS011;32542;52.832;13.816;2022-12-07T07:55:10;7.05;;;1.50;;
17253;SDS011;32542;52.832;13.816;2022-12-07T07:58:13;11.63;;;1.80;;
17253;SDS011;32542;52.832;13.816;2022-12-07T08:01:16;2.80;;;1.52;;
17253;SDS011;32542;52.832;13.816;2022-12-07T08:04:21;5.50;;;1.73;;
17253;SDS011;32542;52.832;13.816;2022-12-07T08:07:24;3.95;;;1.60;;
17253;SDS011;32542;52.832;13.816;2022-12-07T08:10:28;4.88;;;1.85;;
17253;SDS011;32542;52.832;13.816;2022-12-07T08:13:33;4.03;;;1.88;;
17253;SDS011;32542;52.832;13.816;2022-12-07T08:16:37;2.88;;;1.63;;
17253;SDS011;32542;52.832;13.816;2022-12-07T08:19:40;6.47;;;1.90;;
17253;SDS011;32542;52.832;13.816;2022-12-07T08:22:43;9.48;;;2.50;;
17253;SDS011;32542;52.832;13.816;2022-12-07T08:25:47;3.83;;;1.92;;
17253;SDS011;32542;52.832;13.816;2022-12-07T08:28:52;3.70;;;1.92;;
17253;SDS011;32542;52.832;13.816;2022-12-07T08:31:55;5.18;;;1.70;;
17253;SDS011;32542;52.832;13.816;2022-12-07T08:34:58;4.35;;;1.90;;
17253;SDS011;32542;52.832;13.816;2022-12-07T08:38:01;5.70;;;2.03;;
17253;SDS011;32542;52.832;13.816;2022-12-07T08:41:06;2.72;;;1.70;;
17253;SDS011;32542;52.832;13.816;2022-12-07T08:44:10;6.18;;;1.85;;
17253;SDS011;32542;52.832;13.816;2022-12-07T08:47:13;8.20;;;1.80;;
17253;SDS011;32542;52.832;13.816;2022-12-07T08:50:16;2.78;;;1.85;;
17253;SDS011;32542;52.832;13.816;2022-12-07T08:53:20;4.65;;;2.38;;
17253;SDS011;32542;52.832;13.816;2022-12-07T08:56:24;3.92;;;1.73;;
17253;SDS011;32542;52.832;13.816;2022-12-07T08:59:27;5.30;;;1.80;;
17253;SDS011;32542;52.832;13.816;2022-12-07T09:02:31;3.08;;;1.52;;
17253;SDS011;32542;52.832;13.816;2022-12-07T09:05:34;5.97;;;1.73;;
17253;SDS011;32542;52.832;13.816;2022-12-07T09:08:38;2.78;;;1.88;;
17253;SDS011;32542;52.832;13.816;2022-12-07T09:11:45;2.20;;;1.77;;
17253;SDS011;32542;52.832;13.816;2022-12-07T09:14:48;3.28;;;1.88;;
17253;SDS011;32542;52.832;13.816;2022-12-07T09:17:51;5.88;;;1.70;;
17253;SDS011;32542;52.832;13.816;2022-12-07T09:20:54;1.70;;;1.38;;
17253;SDS011;32542;52.832;13.816;2022-12-07T09:23:58;2.53;;;1.63;;
17253;SDS011;32542;52.832;13.816;2022-12-07T09:27:02;3.47;;;1.80;;
17253;SDS011;32542;52.832;13.816;2022-12-07T09:30:06;3.88;;;1.77;;
17253;SDS011;32542;52.832;13.816;2022-12-07T09:33:10;4.97;;;1.80;;
17253;SDS011;32542;52.832;13.816;2022-12-07T09:36:13;2.42;;;1.60;;
17253;SDS011;32542;52.832;13.816;2022-12-07T09:39:16;2.75;;;1.73;;
17253;SDS011;32542;52.832;13.816;2022-12-07T09:42:25;2.28;;;1.60;;
17253;SDS011;32542;52.832;13.816;2022-12-07T09:45:32;3.35;;;1.70;;
17253;SDS011;32542;52.832;13.816;2022-12-07T09:48:38;2.58;;;1.70;;
17253;SDS011;32542;52.832;13.816;2022-12-07T09:51:41;2.53;;;1.70;;
17253;SDS011;32542;52.832;13.816;2022-12-07T09:54:45;2.45;;;1.50;;
17253;SDS011;32542;52.832;13.816;2022-12-07T09:57:52;2.33;;;1.67;;
17253;SDS011;32542;52.832;13.816;2022-12-07T10:00:56;2.38;;;1.60;;
17253;SDS011;32542;52.832;13.816;2022-12-07T10:04:08;2.47;;;1.83;;
17253;SDS011;32542;52.832;13.816;2022-12-07T10:07:15;4.20;;;1.70;;
17253;SDS011;32542;52.832;13.816;2022-12-07T10:10:19;2.90;;;1.52;;
17253;SDS011;32542;52.832;13.816;2022-12-07T10:13:35;1.95;;;1.48;;
17253;SDS011;32542;52.832;13.816;2022-12-07T10:16:40;1.50;;;1.33;;
17253;SDS011;32542;52.832;13.816;2022-12-07T10:19:44;2.75;;;1.85;;
17253;SDS011;32542;52.832;13.816;2022-12-07T10:22:57;3.33;;;2.05;;
17253;SDS011;32542;52.832;13.816;2022-12-07T10:26:15;2.33;;;1.60;;
17253;SDS011;32542;52.832;13.816;2022-12-07T10:29:28;2.83;;;1.80;;
17253;SDS011;32542;52.832;13.816;2022-12-07T10:32:33;2.85;;;1.80;;
17253;SDS011;32542;52.832;13.816;2022-12-07T10:35:38;2.03;;;1.52;;
17253;SDS011;32542;52.832;13.816;2022-12-07T10:38:47;3.55;;;1.60;;
17253;SDS011;32542;52.832;13.816;2022-12-07T10:41:52;1.95;;;1.58;;
17253;SDS011;32542;52.832;13.816;2022-12-07T10:45:08;2.17;;;1.80;;
17253;SDS011;32542;52.832;13.816;2022-12-07T10:48:17;2.17;;;1.60;;
17253;SDS011;32542;52.832;13.816;2022-12-07T10:51:31;2.53;;;1.95;;
17253;SDS011;32542;52.832;13.816;2022-12-07T10:54:43;2.10;;;1.50;;
17253;SDS011;32542;52.832;13.816;2022-12-07T11:01:29;1.60;;;1.45;;
17253;SDS011;32542;52.832;13.816;2022-12-07T11:04:38;1.92;;;1.63;;
17253;SDS011;32542;52.832;13.816;2022-12-07T11:07:57;2.38;;;1.80;;
17253;SDS011;32542;52.832;13.816;2022-12-07T11:11:06;3.10;;;1.58;;
17253;SDS011;32542;52.832;13.816;2022-12-07T11:14:16;2.13;;;1.70;;
17253;SDS011;32542;52.832;13.816;2022-12-07T11:17:31;3.00;;;1.75;;
17253;SDS011;32542;52.832;13.816;2022-12-07T11:20:41;3.40;;;2.10;;
17253;SDS011;32542;52.832;13.816;2022-12-07T11:23:49;2.03;;;1.42;;
17253;SDS011;32542;52.832;13.816;2022-12-07T11:27:03;3.50;;;1.80;;
17253;SDS011;32542;52.832;13.816;2022-12-07T11:30:14;3.15;;;1.95;;
17253;SDS011;32542;52.832;13.816;2022-12-07T11:33:25;1.55;;;1.42;;
17253;SDS011;32542;52.832;13.816;2022-12-07T11:36:33;2.38;;;1.90;;
17253;SDS011;32542;52.832;13.816;2022-12-07T11:39:41;2.20;;;1.60;;
17253;SDS011;32542;52.832;13.816;2022-12-07T11:42:50;2.92;;;1.73;;
17253;SDS011;32542;52.832;13.816;2022-12-07T11:45:59;1.80;;;1.60;;
17253;SDS011;32542;52.832;13.816;2022-12-07T11:49:10;2.30;;;1.88;;
17253;SDS011;32542;52.832;13.816;2022-12-07T11:52:22;2.10;;;1.55;;
17253;SDS011;32542;52.832;13.816;2022-12-07T11:55:38;1.83;;;1.45;;
17253;SDS011;32542;52.832;13.816;2022-12-07T11:58:47;2.70;;;1.73;;
17253;SDS011;32542;52.832;13.816;2022-12-07T12:01:56;2.53;;;1.73;;
17253;SDS011;32542;52.832;13.816;2022-12-07T12:05:11;1.90;;;1.55;;
17253;SDS011;32542;52.832;13.816;2022-12-07T12:08:18;2.50;;;1.60;;
17253;SDS011;32542;52.832;13.816;2022-12-07T12:11:50;2.72;;;1.40;;
17253;SDS011;32542;52.832;13.816;2022-12-07T12:15:37;2.30;;;1.50;;
17253;SDS011;32542;52.832;13.816;2022-12-07T12:18:53;1.60;;;1.50;;
17253;SDS011;32542;52.832;13.816;2022-12-07T12:22:12;2.80;;;1.67;;
17253;SDS011;32542;52.832;13.816;2022-12-07T12:25:20;1.73;;;1.30;;
17253;SDS011;32542;52.832;13.816;2022-12-07T12:28:27;2.92;;;1.63;;
17253;SDS011;32542;52.832;13.816;2022-12-07T12:31:36;1.52;;;1.30;;
17253;SDS011;32542;52.832;13.816;2022-12-07T12:34:57;1.70;;;1.50;;
17253;SDS011;32542;52.832;13.816;2022-12-07T12:38:24;2.03;;;1.50;;
17253;SDS011;32542;52.832;13.816;2022-12-07T12:41:51;1.83;;;1.52;;
17253;SDS011;32542;52.832;13.816;2022-12-07T12:45:20;3.88;;;1.80;;
17253;SDS011;32542;52.832;13.816;2022-12-07T12:48:28;3.03;;;1.73;;
17253;SDS011;32542;52.832;13.816;2022-12-07T12:51:36;4.03;;;2.00;;
17253;SDS011;32542;52.832;13.816;2022-12-07T12:54:57;2.83;;;1.67;;
17253;SDS011;32542;52.832;13.816;2022-12-07T13:01:39;2.95;;;2.00;;
17253;SDS011;32542;52.832;13.816;2022-12-07T13:04:49;2.80;;;1.70;;
17253;SDS011;32542;52.832;13.816;2022-12-07T13:07:56;2.72;;;1.67;;
17253;SDS011;32542;52.832;13.816;2022-12-07T13:11:16;2.33;;;1.67;;
17253;SDS011;32542;52.832;13.816;2022-12-07T13:14:41;2.88;;;1.65;;
17253;SDS011;32542;52.832;13.816;2022-12-07T13:18:04;2.75;;;1.77;;
17253;SDS011;32542;52.832;13.816;2022-12-07T13:21:41;3.80;;;1.58;;
17253;SDS011;32542;52.832;13.816;2022-12-07T13:24:46;3.40;;;1.70;;
17253;SDS011;32542;52.832;13.816;2022-12-07T13:27:54;2.70;;;1.90;;
17253;SDS011;32542;52.832;13.816;2022-12-07T13:31:04;2.05;;;1.42;;
17253;SDS011;32542;52.832;13.816;2022-12-07T13:34:28;2.00;;;1.55;;
17253;SDS011;32542;52.832;13.816;2022-12-07T13:37:33;2.70;;;1.85;;
17253;SDS011;32542;52.832;13.816;2022-12-07T13:40:39;3.10;;;1.75;;
17253;SDS011;32542;52.832;13.816;2022-12-07T13:43:44;3.92;;;2.10;;
17253;SDS011;32542;52.832;13.816;2022-12-07T13:46:53;2.17;;;1.63;;
17253;SDS011;32542;52.832;13.816;2022-12-07T13:50:00;2.60;;;1.63;;
17253;SDS011;32542;52.832;13.816;2022-12-07T13:53:07;3.75;;;2.00;;
17253;SDS011;32542;52.832;13.816;2022-12-07T13:56:14;1.67;;;1.40;;
17253;SDS011;32542;52.832;13.816;2022-12-07T13:59:20;2.97;;;1.60;;
17253;SDS011;32542;52.832;13.816;2022-12-07T14:02:27;2.83;;;1.70;;
17253;SDS011;32542;52.832;13.816;2022-12-07T14:05:35;3.20;;;1.95;;
17253;SDS011;32542;52.832;13.816;2022-12-07T14:08:39;2.95;;;1.60;;
17253;SDS011;32542;52.832;13.816;2022-12-07T14:11:42;2.72;;;1.90;;
17253;SDS011;32542;52.832;13.816;2022-12-07T14:14:47;2.40;;;1.60;;
17253;SDS011;32542;52.832;13.816;2022-12-07T14:17:51;3.85;;;2.00;;
17253;SDS011;32542;52.832;13.816;2022-12-07T14:21:04;3.00;;;2.10;;
17253;SDS011;32542;52.832;13.816;2022-12-07T14:24:10;2.20;;;1.80;;
17253;SDS011;32542;52.832;13.816;2022-12-07T14:27:17;2.40;;;1.65;;
17253;SDS011;32542;52.832;13.816;2022-12-07T14:30:23;2.85;;;1.60;;
17253;SDS011;32542;52.832;13.816;2022-12-07T14:33:29;2.35;;;1.60;;
17253;SDS011;32542;52.832;13.816;2022-12-07T14:36:32;4.00;;;1.77;;
17253;SDS011;32542;52.832;13.816;2022-12-07T14:39:35;2.30;;;1.20;;
17253;SDS011;32542;52.832;13.816;2022-12-07T14:42:38;2.50;;;2.03;;
17253;SDS011;32542;52.832;13.816;2022-12-07T14:45:43;2.85;;;1.73;;
17253;SDS011;32542;52.832;13.816;2022-12-07T14:48:47;2.90;;;1.60;;
17253;SDS011;32542;52.832;13.816;2022-12-07T14:52:12;2.92;;;1.63;;
17253;SDS011;32542;52.832;13.816;2022-12-07T14:55:37;3.60;;;1.60;;
17253;SDS011;32542;52.832;13.816;2022-12-07T14:58:40;3.42;;;1.90;;
17253;SDS011;32542;52.832;13.816;2022-12-07T15:01:44;2.97;;;1.60;;
17253;SDS011;32542;52.832;13.816;2022-12-07T15:04:48;2.70;;;1.50;;
17253;SDS011;32542;52.832;13.816;2022-12-07T15:07:51;4.40;;;1.42;;
17253;SDS011;32542;52.832;13.816;2022-12-07T15:10:54;2.58;;;1.50;;
17253;SDS011;32542;52.832;13.816;2022-12-07T15:13:57;4.40;;;1.73;;
17253;SDS011;32542;52.832;13.816;2022-12-07T15:17:15;2.75;;;1.23;;
17253;SDS011;32542;52.832;13.816;2022-12-07T15:20:30;2.53;;;1.73;;
17253;SDS011;32542;52.832;13.816;2022-12-07T15:23:33;2.55;;;1.52;;
17253;SDS011;32542;52.832;13.816;2022-12-07T15:26:36;2.35;;;1.58;;
17253;SDS011;32542;52.832;13.816;2022-12-07T15:29:40;3.10;;;1.70;;
17253;SDS011;32542;52.832;13.816;2022-12-07T15:32:44;3.17;;;1.75;;
17253;SDS011;32542;52.832;13.816;2022-12-07T15:35:51;2.25;;;1.40;;
17253;SDS011;32542;52.832;13.816;2022-12-07T15:38:55;4.00;;;1.83;;
17253;SDS011;32542;52.832;13.816;2022-12-07T15:42:14;6.43;;;1.83;;
17253;SDS011;32542;52.832;13.816;2022-12-07T15:45:17;2.15;;;1.42;;
17253;SDS011;32542;52.832;13.816;2022-12-07T15:48:21;2.78;;;1.67;;
17253;SDS011;32542;52.832;13.816;2022-12-07T15:51:29;4.57;;;1.83;;
17253;SDS011;32542;52.832;13.816;2022-12-07T15:54:32;4.63;;;1.75;;
17253;SDS011;32542;52.832;13.816;2022-12-07T15:57:36;2.60;;;1.77;;
17253;SDS011;32542;52.832;13.816;2022-12-07T16:00:40;3.60;;;1.73;;
17253;SDS011;32542;52.832;13.816;2022-12-07T16:03:44;5.85;;;1.75;;
17253;SDS011;32542;52.832;13.816;2022-12-07T16:06:48;7.13;;;1.70;;
17253;SDS011;32542;52.832;13.816;2022-12-07T16:09:52;4.80;;;1.83;;
17253;SDS011;32542;52.832;13.816;2022-12-07T16:12:55;8.02;;;1.80;;
17253;SDS011;32542;52.832;13.816;2022-12-07T16:15:58;6.10;;;2.20;;
17253;SDS011;32542;52.832;13.816;2022-12-07T16:19:07;2.97;;;1.60;;
17253;SDS011;32542;52.832;13.816;2022-12-07T16:22:10;3.88;;;1.95;;
17253;SDS011;32542;52.832;13.816;2022-12-07T16:25:13;7.38;;;1.92;;
17253;SDS011;32542;52.832;13.816;2022-12-07T16:28:16;3.50;;;1.73;;
17253;SDS011;32542;52.832;13.816;2022-12-07T16:31:20;3.63;;;2.00;;
17253;SDS011;32542;52.832;13.816;2022-12-07T16:34:25;3.38;;;1.63;;
17253;SDS011;32542;52.832;13.816;2022-12-07T16:37:28;4.03;;;1.88;;
17253;SDS011;32542;52.832;13.816;2022-12-07T16:40:31;3.78;;;1.63;;
17253;SDS011;32542;52.832;13.816;2022-12-07T16:43:35;2.47;;;1.65;;
17253;SDS011;32542;52.832;13.816;2022-12-07T16:46:38;6.82;;;1.77;;
17253;SDS011;32542;52.832;13.816;2022-12-07T16:49:43;4.25;;;1.60;;
17253;SDS011;32542;52.832;13.816;2022-12-07T16:52:46;9.40;;;1.90;;
17253;SDS011;32542;52.832;13.816;2022-12-07T16:55:49;2.33;;;1.50;;
17253;SDS011;32542;52.832;13.816;2022-12-07T16:58:53;3.13;;;1.70;;
17253;SDS011;32542;52.832;13.816;2022-12-07T17:01:56;5.22;;;1.90;;
17253;SDS011;32542;52.832;13.816;2022-12-07T17:05:00;2.72;;;1.77;;
17253;SDS011;32542;52.832;13.816;2022-12-07T17:08:04;3.40;;;1.75;;
17253;SDS011;32542;52.832;13.816;2022-12-07T17:11:11;2.78;;;1.45;;
17253;SDS011;32542;52.832;13.816;2022-12-07T17:14:14;4.22;;;1.90;;
17253;SDS011;32542;52.832;13.816;2022-12-07T17:17:35;3.70;;;1.88;;
17253;SDS011;32542;52.832;13.816;2022-12-07T17:20:39;4.28;;;1.80;;
17253;SDS011;32542;52.832;13.816;2022-12-07T17:23:42;2.60;;;1.70;;
17253;SDS011;32542;52.832;13.816;2022-12-07T17:26:45;2.97;;;1.60;;
17253;SDS011;32542;52.832;13.816;2022-12-07T17:29:49;4.07;;;1.80;;
17253;SDS011;32542;52.832;13.816;2022-12-07T17:32:52;2.08;;;1.20;;
17253;SDS011;32542;52.832;13.816;2022-12-07T17:35:56;2.88;;;1.60;;
17253;SDS011;32542;52.832;13.816;2022-12-07T17:38:59;3.05;;;1.60;;
17253;SDS011;32542;52.832;13.816;2022-12-07T17:42:03;2.30;;;1.40;;
17253;SDS011;32542;52.832;13.816;2022-12-07T17:45:24;2.30;;;1.45;;
17253;SDS011;32542;52.832;13.816;2022-12-07T17:48:27;6.15;;;2.05;;
17253;SDS011;32542;52.832;13.816;2022-12-07T17:51:32;5.88;;;1.70;;
17253;SDS011;32542;52.832;13.816;2022-12-07T17:54:52;3.90;;;1.90;;
17253;SDS011;32542;52.832;13.816;2022-12-07T17:57:55;4.20;;;2.15;;
17253;SDS011;32542;52.832;13.816;2022-12-07T18:00:58;3.33;;;1.67;;
17253;SDS011;32542;52.832;13.816;2022-12-07T18:04:01;7.43;;;2.40;;
17253;SDS011;32542;52.832;13.816;2022-12-07T18:07:06;2.90;;;1.60;;
17253;SDS011;32542;52.832;13.816;2022-12-07T18:10:09;4.20;;;1.60;;
17253;SDS011;32542;52.832;13.816;2022-12-07T18:13:13;5.28;;;1.80;;
17253;SDS011;32542;52.832;13.816;2022-12-07T18:16:38;3.33;;;1.42;;
17253;SDS011;32542;52.832;13.816;2022-12-07T18:19:42;5.95;;;1.80;;
17253;SDS011;32542;52.832;13.816;2022-12-07T18:22:46;5.20;;;1.60;;
17253;SDS011;32542;52.832;13.816;2022-12-07T18:25:50;6.78;;;1.92;;
17253;SDS011;32542;52.832;13.816;2022-12-07T18:28:53;8.38;;;1.90;;
17253;SDS011;32542;52.832;13.816;2022-12-07T18:31:56;4.35;;;1.60;;
17253;SDS011;32542;52.832;13.816;2022-12-07T18:35:00;6.80;;;1.60;;